首页
METAR-TAF:

METAR-TAF

机场 :

日内瓦国际机场

日内瓦, 瑞士

纬度: 46-15N, 经度: 006-08E, 海拔: 420米

当前天气观测

该预报发布于26分钟前的08:20 UTC
风速3节,风向多变
温度 20°C
湿度 83%
气压 1017 hPa
能见度10公里或以上
少量云层高于1500英尺
多云层高于5000英尺

METAR: LSGG 140820Z VRB03KT 9999 FEW015 BKN050 20/17 Q1017 NOSIG

时间: 10:46 (08:46 UTC)

预报

该预报发布于21分钟前的08:25 UTC
预报有效从14日的 09点(UTC)到 15日的 15点(UTC)
风速3节,风向多变
能见度10公里或以上
少量云层高于2000英尺
散云层高于4500英尺
多云层高于8000英尺
几率 30% :
短暂存在
从 14日的 09点(UTC)到 14日的 12点(UTC)
散云层高于5000英尺, 塔状积云.
阵雨
短暂存在
从 14日的 13点(UTC)到 14日的 18点(UTC)
风速10节,风向东北
成为
从 14日的 19点(UTC)到 14日的 21点(UTC)
能见度10公里或以上
1500米以下无云,无积雨云
成为
从 15日的 08点(UTC)到 15日的 10点(UTC)
风速7节,风向东北

TAF: LSGG 140825Z 1409/1515 VRB03KT 9999 FEW020 SCT045 BKN080 TX25/1415Z TN14/1504Z TX28/1515Z PROB30 TEMPO 1409/1412 SHRA SCT050TCU TEMPO 1413/1418 04010KT BECMG 1419/1421 CAVOK BECMG 1508/1510 04007KT

超过4000个机场的气象观测和天气预报(METAR&TAF报告)。

可查询的气象台以黄色和红色小点在地图上表示。

将鼠标移到小点上方,可查看气象台名称。

然后点击查看天气观测和预报。

如需切换地图:点击带黑十字的绿色按钮放大地图;点击带横线的绿色按钮缩小地图;或者点击绿色箭头查看邻近地区的地图。


METAR-TAF: